createdAt,value
2023-07-01T00:03:19.691Z,55.79
2023-07-01T00:08:21.114Z,55.51
2023-07-01T00:13:22.543Z,55.56
2023-07-01T00:18:24.302Z,55.79
2023-07-01T00:23:25.841Z,55.87
2023-07-01T00:28:27.494Z,55.64
2023-07-01T00:33:28.966Z,55.78
2023-07-01T00:38:30.378Z,55.51
2023-07-01T00:43:31.836Z,55.57
2023-07-01T00:48:33.269Z,55.78
2023-07-01T00:53:34.709Z,55.30
2023-07-01T00:58:36.407Z,55.53
2023-07-01T01:03:50.220Z,55.49
2023-07-01T01:08:56.640Z,55.55
2023-07-01T01:13:59.429Z,55.23
2023-07-01T01:19:00.900Z,55.28
2023-07-01T01:24:04.907Z,55.30
2023-07-01T01:29:07.387Z,55.33
2023-07-01T01:34:08.905Z,55.14
2023-07-01T01:39:10.366Z,55.06
2023-07-01T01:44:14.844Z,55.20
2023-07-01T01:49:16.268Z,55.01
2023-07-01T01:54:17.701Z,54.97
2023-07-01T01:59:19.120Z,54.50
2023-07-01T02:04:20.726Z,54.67
2023-07-01T02:09:22.915Z,54.52
2023-07-01T02:14:24.361Z,54.70
2023-07-01T02:19:25.813Z,54.36
2023-07-01T02:24:27.244Z,54.41
2023-07-01T02:29:28.740Z,54.43
2023-07-01T02:34:31.131Z,54.43
2023-07-01T02:39:32.537Z,54.36
2023-07-01T02:44:34.005Z,54.20
2023-07-01T02:49:35.438Z,54.28
2023-07-01T02:54:40.029Z,54.47
2023-07-01T02:59:41.464Z,54.43
2023-07-01T03:04:42.961Z,54.20
2023-07-01T03:09:44.438Z,54.15
2023-07-01T03:14:45.874Z,53.88
2023-07-01T03:19:47.314Z,54.16
2023-07-01T03:24:48.755Z,54.17
2023-07-01T03:29:50.459Z,54.07
2023-07-01T03:34:52.583Z,54.09
2023-07-01T03:39:54.008Z,53.90
2023-07-01T03:44:55.428Z,53.66
2023-07-01T03:49:56.857Z,54.06
2023-07-01T03:54:58.586Z,53.96
2023-07-01T04:00:00.479Z,53.88
2023-07-01T04:05:10.944Z,53.93
2023-07-01T04:10:12.388Z,53.61
2023-07-01T04:15:13.837Z,53.40
2023-07-01T04:20:15.321Z,53.61
2023-07-01T04:25:16.736Z,53.46
2023-07-01T04:30:18.194Z,53.54
2023-07-01T04:35:19.643Z,53.38
2023-07-01T04:40:21.065Z,53.35
2023-07-01T04:45:22.532Z,53.21
2023-07-01T04:50:24.142Z,52.86
2023-07-01T04:55:25.569Z,52.87
2023-07-01T05:00:27.016Z,52.79
2023-07-01T05:05:28.587Z,52.50
2023-07-01T05:10:30.260Z,52.51
2023-07-01T05:15:31.679Z,52.06
2023-07-01T05:20:33.111Z,52.06
2023-07-01T05:25:34.539Z,52.24
2023-07-01T05:30:36.270Z,51.97
2023-07-01T05:35:37.813Z,51.36
2023-07-01T05:40:39.687Z,51.32
2023-07-01T05:45:41.205Z,50.92
2023-07-01T05:50:42.647Z,50.79
2023-07-01T05:55:44.234Z,50.55
2023-07-01T06:00:46.555Z,50.24
2023-07-01T06:05:48.209Z,49.77
2023-07-01T06:10:49.665Z,49.93
2023-07-01T06:15:51.140Z,49.57
2023-07-01T06:20:52.579Z,49.44
2023-07-01T06:25:54.004Z,48.79
2023-07-01T06:30:55.640Z,48.23
2023-07-01T06:35:57.103Z,48.16
2023-07-01T06:40:58.521Z,47.52
2023-07-01T06:46:00.703Z,47.17
2023-07-01T06:51:04.492Z,46.54
2023-07-01T06:56:05.929Z,46.24
2023-07-01T07:01:07.548Z,46.01
2023-07-01T07:06:09.054Z,45.94
2023-07-01T07:11:10.511Z,45.10
2023-07-01T07:16:11.954Z,44.74
2023-07-01T07:21:13.423Z,44.27
2023-07-01T07:26:15.058Z,44.37
2023-07-01T07:31:16.556Z,43.65
2023-07-01T07:36:18.092Z,42.77
2023-07-01T07:41:19.554Z,41.75
2023-07-01T07:46:21.029Z,41.06
2023-07-01T07:51:22.917Z,40.65
2023-07-01T07:56:24.390Z,40.55
2023-07-01T08:01:25.854Z,40.51
2023-07-01T08:06:27.316Z,39.98
2023-07-01T08:11:28.876Z,40.19
2023-07-01T08:16:33.014Z,39.14
2023-07-01T08:21:36.906Z,38.55
2023-07-01T08:26:38.369Z,38.61
2023-07-01T08:31:41.408Z,39.11
2023-07-01T08:36:42.913Z,38.74
2023-07-01T08:41:49.741Z,37.85
2023-07-01T08:46:53.473Z,37.86
2023-07-01T08:52:06.944Z,37.86
2023-07-01T08:57:11.418Z,37.79
2023-07-01T09:02:12.934Z,37.41
2023-07-01T09:07:14.409Z,37.11
2023-07-01T09:12:16.691Z,36.35
2023-07-01T09:17:30.312Z,36.41
2023-07-01T09:22:32.155Z,36.52
2023-07-01T09:27:40.707Z,36.08
2023-07-01T09:32:42.248Z,37.00
2023-07-01T09:37:43.743Z,35.96
2023-07-01T09:42:55.629Z,36.54
2023-07-01T09:47:57.181Z,36.18
2023-07-01T09:52:58.671Z,36.54
2023-07-01T09:58:00.211Z,36.75
2023-07-01T10:03:01.943Z,36.88
2023-07-01T10:08:03.527Z,36.93
2023-07-01T10:13:04.971Z,37.16
2023-07-01T10:18:23.128Z,37.41
2023-07-01T10:23:24.627Z,37.62
2023-07-01T10:28:27.711Z,38.01
2023-07-01T10:33:29.196Z,37.78
2023-07-01T10:38:31.452Z,37.57
2023-07-01T10:43:37.812Z,37.53
2023-07-01T10:49:05.867Z,38.10
2023-07-01T10:54:08.453Z,37.58
2023-07-01T10:59:28.567Z,37.59
2023-07-01T11:04:52.342Z,37.79
2023-07-01T11:09:57.054Z,37.50
2023-07-01T11:15:00.629Z,37.49
2023-07-01T11:20:02.115Z,36.94
2023-07-01T11:25:04.844Z,36.97
2023-07-01T11:30:06.829Z,37.11
2023-07-01T11:35:09.285Z,36.62
2023-07-01T11:40:11.047Z,36.88
2023-07-01T11:45:12.841Z,37.13
2023-07-01T11:50:14.270Z,37.13
2023-07-01T11:55:34.230Z,36.45
2023-07-01T12:00:39.209Z,36.57
2023-07-01T12:05:45.034Z,36.33
2023-07-01T12:10:46.742Z,36.16
2023-07-01T12:15:56.032Z,36.00
2023-07-01T12:20:57.568Z,36.27
2023-07-01T12:25:58.988Z,36.39
2023-07-01T12:31:00.588Z,36.17
2023-07-01T12:36:02.378Z,36.37
2023-07-01T12:41:03.865Z,36.18
2023-07-01T12:46:05.335Z,36.17
2023-07-01T12:51:06.796Z,36.09
2023-07-01T12:56:08.274Z,35.67
2023-07-01T13:01:09.735Z,36.04
2023-07-01T13:06:28.524Z,35.59
2023-07-01T13:11:33.176Z,35.21
2023-07-01T13:16:36.161Z,35.18
2023-07-01T13:21:45.287Z,35.36
2023-07-01T13:26:47.383Z,35.00
2023-07-01T13:31:49.299Z,35.27
2023-07-01T13:36:52.924Z,35.28
2023-07-01T13:41:54.664Z,35.09
2023-07-01T13:46:56.826Z,35.23
2023-07-01T13:51:58.434Z,35.68
2023-07-01T13:57:00.880Z,35.40
2023-07-01T14:02:04.205Z,35.80
2023-07-01T14:07:06.200Z,35.84
2023-07-01T14:12:08.260Z,35.81
2023-07-01T14:17:13.433Z,36.09
2023-07-01T14:22:14.975Z,35.70
2023-07-01T14:27:28.901Z,36.17
2023-07-01T14:32:30.431Z,36.03
2023-07-01T14:37:32.479Z,35.94
2023-07-01T14:42:35.085Z,35.82
2023-07-01T14:47:36.536Z,36.36
2023-07-01T14:52:38.080Z,35.95
2023-07-01T14:57:39.511Z,36.24
2023-07-01T15:07:42.333Z,36.81
2023-07-01T15:12:43.753Z,36.26
2023-07-01T15:17:45.224Z,36.49
2023-07-01T15:22:46.686Z,36.44
2023-07-01T15:27:48.103Z,36.24
2023-07-01T15:32:49.560Z,36.54
2023-07-01T15:37:51.092Z,36.66
2023-07-01T15:42:52.530Z,36.45
2023-07-01T15:47:54.070Z,36.40
2023-07-01T15:52:55.542Z,36.62
2023-07-01T15:57:56.972Z,36.32
2023-07-01T16:02:58.476Z,36.82
2023-07-01T16:08:02.046Z,36.44
2023-07-01T16:13:07.238Z,36.68
2023-07-01T16:18:46.755Z,36.69
2023-07-01T16:23:53.347Z,36.51
2023-07-01T16:28:55.420Z,36.40
2023-07-01T16:33:57.145Z,36.09
2023-07-01T16:39:01.472Z,36.29
2023-07-01T16:44:03.479Z,36.34
2023-07-01T16:49:08.723Z,35.94
2023-07-01T16:54:12.126Z,36.32
2023-07-01T16:59:37.178Z,36.05
2023-07-01T17:04:38.706Z,35.86
2023-07-01T17:09:47.290Z,36.33
2023-07-01T17:14:51.829Z,36.06
2023-07-01T17:19:53.320Z,36.08
2023-07-01T17:24:54.975Z,36.11
2023-07-01T17:29:56.495Z,35.70
2023-07-01T17:35:14.198Z,35.83
2023-07-01T17:40:16.521Z,35.99
2023-07-01T17:45:18.615Z,35.75
2023-07-01T17:50:22.468Z,35.80
2023-07-01T17:55:24.102Z,35.52
2023-07-01T18:00:25.933Z,35.45
2023-07-01T18:05:27.467Z,35.49
2023-07-01T18:10:28.954Z,35.84
2023-07-01T18:15:30.457Z,35.58
2023-07-01T18:20:38.721Z,35.79
2023-07-01T18:25:53.300Z,36.02
2023-07-01T18:30:54.780Z,36.03
2023-07-01T18:35:56.263Z,35.92
2023-07-01T18:40:57.685Z,36.44
2023-07-01T18:45:59.109Z,36.76
2023-07-01T18:51:01.511Z,36.76
2023-07-01T18:56:03.322Z,37.36
2023-07-01T19:01:04.963Z,37.32
2023-07-01T19:06:06.383Z,37.70
2023-07-01T19:11:07.910Z,38.19
2023-07-01T19:16:09.415Z,38.67
2023-07-01T19:21:10.963Z,38.82
2023-07-01T19:26:12.801Z,39.21
2023-07-01T19:31:14.283Z,39.31
2023-07-01T19:36:15.724Z,40.38
2023-07-01T19:41:17.673Z,40.69
2023-07-01T19:46:20.265Z,40.63
2023-07-01T19:51:21.698Z,41.86
2023-07-01T19:56:23.145Z,42.41
2023-07-01T20:01:24.571Z,42.75
2023-07-01T20:06:26.012Z,43.00
2023-07-01T20:11:27.466Z,43.26
2023-07-01T20:16:29.147Z,43.34
2023-07-01T20:21:30.595Z,43.56
2023-07-01T20:26:32.019Z,43.76
2023-07-01T20:31:33.459Z,44.08
2023-07-01T20:36:36.142Z,43.78
2023-07-01T20:41:37.578Z,43.61
2023-07-01T20:46:44.883Z,43.81
2023-07-01T20:51:46.501Z,44.03
2023-07-01T20:56:47.912Z,43.97
2023-07-01T21:01:49.404Z,44.11
2023-07-01T21:06:50.907Z,44.29
2023-07-01T21:11:52.360Z,44.63
2023-07-01T21:16:53.804Z,44.68
2023-07-01T21:21:55.244Z,44.75
2023-07-01T21:26:56.678Z,45.07
2023-07-01T21:31:59.403Z,45.38
2023-07-01T21:37:00.818Z,45.94
2023-07-01T21:42:02.238Z,46.50
2023-07-01T21:47:03.766Z,47.01
2023-07-01T21:52:05.947Z,47.76
2023-07-01T21:57:07.441Z,48.15
2023-07-01T22:02:08.897Z,48.36
2023-07-01T22:07:10.338Z,48.45
2023-07-01T22:12:11.859Z,48.91
2023-07-01T22:17:13.350Z,49.04
2023-07-01T22:22:14.785Z,49.30
2023-07-01T22:27:16.207Z,49.13
2023-07-01T22:32:18.369Z,48.83
2023-07-01T22:37:19.822Z,48.93
2023-07-01T22:42:22.274Z,49.49
2023-07-01T22:47:23.740Z,49.31
2023-07-01T22:52:25.246Z,49.22
2023-07-01T22:57:26.730Z,49.37
2023-07-01T23:02:28.243Z,49.40
2023-07-01T23:07:29.823Z,49.22
2023-07-01T23:12:32.710Z,49.44
2023-07-01T23:17:34.213Z,49.34
2023-07-01T23:22:39.021Z,49.19
2023-07-01T23:27:43.713Z,49.21
2023-07-01T23:32:53.929Z,49.22
2023-07-01T23:37:57.922Z,49.12
2023-07-01T23:42:59.380Z,48.90
2023-07-01T23:48:00.953Z,49.18
2023-07-01T23:53:02.383Z,49.06
2023-07-01T23:58:03.862Z,49.27
